Aérodrome :
LOGIN :

S'inscrire | Disclaimer

   EN    FR    IT 

 










Légende :    VFR   VFR Marginal   IFR   IFR Intensif   IFR Très Intensif
Visi : 
Plafond : 
>= 8 km
>= 3000ft
5 à 8 km
1000 à 3000 ft
1500m à 5 km
500 à 1000 ft
800 à 1500m
200 à 500 ft
< 800m
< 200 ft
Symboles :   Orages  Brouillard  Fortes neiges  Fortes précipitations  Vent > 20 kt
SIGMETs :   Divers  Orages  Givrage  Turbulence  Onde Orograph.  Cendres Volcan.







- Altitude de l'aérodrome : 776 ft
- Code IATA : RMS


ETAR - Ramstein Air Base

DERNIER METAR :
  • 210556Z AUTO 00000KT 9999 CLR 06/04 A3017 RMK AO2 SLP219 T00640036 10064 20005 56007 $

METARs EXPIRÉS :
  • 210456Z AUTO 06003KT 9999 CLR 01/00 A3017 RMK AO2 SLP221 T00090000 $
  • 210356Z AUTO 05003KT 9999 CLR 01/00 A3017 RMK AO2 SLP221 T00061004 $

TAF TAF ETAR
Valide du 21 à 02h jusqu'au 22 à 08h UTC


210206Z 2102/2208 VRB06KT 9999 SKC QNH3015INS
BECMG 2109/2110 07012G20KT 9999 SKC QNH3002INS
BECMG 2117/2118 VRB06KT 9999 SKC QNH2989INS
BECMG 2206/2207 07009KT 9999 SKC QNH2986INS TX24/2115Z TN01/2104Z
Pas de NOTAMs connus pour ce terrain.



MET'MAP, la Météo Aéronautique d'un coup d'oeil ! - Copyright ORBIFLY Décembre 2007 - Disclaimer

ORBIFLY MET'MAP TEAM :

Programmation & Développement : Alexandra Zaïnal
Conception & Développement : Baudouin d'Aumeries
Co-Programmation & Développement : Marc-Olivier Méhu
Soutien technique & logistique : Manuel Goepfert

Contact : metmap@orbifly.com




SOURCES & CREDITS :

   NOAA